sensor_id;sensor_type;location;lat;lon;timestamp;P1;durP1;ratioP1;P2;durP2;ratioP2
79401;SDS011;68857;47.916;106.940;2023-05-27T00:00:13;2.13;;;1.83;;
79401;SDS011;68857;47.916;106.940;2023-05-27T00:02:40;2.78;;;1.52;;
79401;SDS011;68857;47.916;106.940;2023-05-27T00:05:07;4.80;;;2.10;;
79401;SDS011;68857;47.916;106.940;2023-05-27T00:07:33;4.35;;;1.80;;
79401;SDS011;68857;47.916;106.940;2023-05-27T00:10:00;3.60;;;2.00;;
79401;SDS011;68857;47.916;106.940;2023-05-27T00:12:27;5.75;;;1.85;;
79401;SDS011;68857;47.916;106.940;2023-05-27T00:14:53;4.40;;;1.70;;
79401;SDS011;68857;47.916;106.940;2023-05-27T00:17:20;2.85;;;1.42;;
79401;SDS011;68857;47.916;106.940;2023-05-27T00:19:47;3.22;;;1.38;;
79401;SDS011;68857;47.916;106.940;2023-05-27T00:22:14;3.72;;;1.70;;
79401;SDS011;68857;47.916;106.940;2023-05-27T00:24:40;2.92;;;1.65;;
79401;SDS011;68857;47.916;106.940;2023-05-27T00:27:07;3.03;;;1.38;;
79401;SDS011;68857;47.916;106.940;2023-05-27T00:29:36;3.80;;;1.83;;
79401;SDS011;68857;47.916;106.940;2023-05-27T00:32:02;2.40;;;1.48;;
79401;SDS011;68857;47.916;106.940;2023-05-27T00:34:30;2.70;;;1.20;;
79401;SDS011;68857;47.916;106.940;2023-05-27T00:36:58;4.13;;;2.17;;
79401;SDS011;68857;47.916;106.940;2023-05-27T00:39:24;3.60;;;1.40;;
79401;SDS011;68857;47.916;106.940;2023-05-27T00:41:51;2.78;;;2.58;;
79401;SDS011;68857;47.916;106.940;2023-05-27T00:44:17;3.95;;;1.50;;
79401;SDS011;68857;47.916;106.940;2023-05-27T00:46:44;3.92;;;2.10;;
79401;SDS011;68857;47.916;106.940;2023-05-27T00:49:11;3.67;;;1.45;;
79401;SDS011;68857;47.916;106.940;2023-05-27T00:51:38;4.53;;;2.17;;
79401;SDS011;68857;47.916;106.940;2023-05-27T00:54:08;2.70;;;1.55;;
79401;SDS011;68857;47.916;106.940;2023-05-27T00:56:36;3.63;;;2.13;;
79401;SDS011;68857;47.916;106.940;2023-05-27T00:59:03;4.28;;;1.88;;
79401;SDS011;68857;47.916;106.940;2023-05-27T01:01:29;4.60;;;2.33;;
79401;SDS011;68857;47.916;106.940;2023-05-27T01:03:58;3.35;;;2.45;;
79401;SDS011;68857;47.916;106.940;2023-05-27T01:11:43;3.88;;;1.95;;
79401;SDS011;68857;47.916;106.940;2023-05-27T01:14:13;3.33;;;1.30;;
79401;SDS011;68857;47.916;106.940;2023-05-27T01:16:41;4.60;;;2.28;;
79401;SDS011;68857;47.916;106.940;2023-05-27T01:19:13;5.00;;;2.35;;
79401;SDS011;68857;47.916;106.940;2023-05-27T01:21:42;4.22;;;2.25;;
79401;SDS011;68857;47.916;106.940;2023-05-27T01:24:11;5.68;;;1.70;;
79401;SDS011;68857;47.916;106.940;2023-05-27T01:26:37;5.40;;;2.42;;
79401;SDS011;68857;47.916;106.940;2023-05-27T01:29:04;3.72;;;1.85;;
79401;SDS011;68857;47.916;106.940;2023-05-27T01:34:06;2.88;;;1.90;;
79401;SDS011;68857;47.916;106.940;2023-05-27T01:36:36;4.43;;;3.28;;
79401;SDS011;68857;47.916;106.940;2023-05-27T01:39:04;4.15;;;2.50;;
79401;SDS011;68857;47.916;106.940;2023-05-27T01:41:31;4.68;;;2.33;;
79401;SDS011;68857;47.916;106.940;2023-05-27T01:43:58;3.30;;;2.10;;
79401;SDS011;68857;47.916;106.940;2023-05-27T01:46:25;3.33;;;1.58;;
79401;SDS011;68857;47.916;106.940;2023-05-27T01:48:52;4.15;;;2.67;;
79401;SDS011;68857;47.916;106.940;2023-05-27T01:51:18;2.88;;;1.58;;
79401;SDS011;68857;47.916;106.940;2023-05-27T01:53:45;4.78;;;2.00;;
79401;SDS011;68857;47.916;106.940;2023-05-27T01:56:11;6.40;;;1.73;;
79401;SDS011;68857;47.916;106.940;2023-05-27T01:58:38;6.07;;;1.77;;
79401;SDS011;68857;47.916;106.940;2023-05-27T02:01:04;2.97;;;1.95;;
79401;SDS011;68857;47.916;106.940;2023-05-27T02:03:31;3.47;;;2.22;;
79401;SDS011;68857;47.916;106.940;2023-05-27T02:05:57;5.70;;;2.45;;
79401;SDS011;68857;47.916;106.940;2023-05-27T02:08:24;5.05;;;1.65;;
79401;SDS011;68857;47.916;106.940;2023-05-27T02:10:50;4.15;;;1.83;;
79401;SDS011;68857;47.916;106.940;2023-05-27T02:13:17;4.03;;;1.65;;
79401;SDS011;68857;47.916;106.940;2023-05-27T02:15:43;5.20;;;1.90;;
79401;SDS011;68857;47.916;106.940;2023-05-27T02:18:10;5.55;;;2.15;;
79401;SDS011;68857;47.916;106.940;2023-05-27T02:20:38;4.50;;;2.03;;
79401;SDS011;68857;47.916;106.940;2023-05-27T02:23:06;6.57;;;1.92;;
79401;SDS011;68857;47.916;106.940;2023-05-27T02:25:33;3.80;;;2.10;;
79401;SDS011;68857;47.916;106.940;2023-05-27T02:27:59;4.38;;;1.92;;
79401;SDS011;68857;47.916;106.940;2023-05-27T02:30:29;4.07;;;2.13;;
79401;SDS011;68857;47.916;106.940;2023-05-27T02:32:56;4.53;;;1.88;;
79401;SDS011;68857;47.916;106.940;2023-05-27T02:35:23;4.97;;;1.70;;
79401;SDS011;68857;47.916;106.940;2023-05-27T02:37:50;5.55;;;2.05;;
79401;SDS011;68857;47.916;106.940;2023-05-27T02:40:26;5.18;;;1.70;;
79401;SDS011;68857;47.916;106.940;2023-05-27T02:42:53;5.82;;;1.58;;
79401;SDS011;68857;47.916;106.940;2023-05-27T02:45:20;3.97;;;1.70;;
79401;SDS011;68857;47.916;106.940;2023-05-27T02:47:46;5.97;;;2.03;;
79401;SDS011;68857;47.916;106.940;2023-05-27T02:50:13;4.40;;;1.92;;
79401;SDS011;68857;47.916;106.940;2023-05-27T02:52:40;7.90;;;2.55;;
79401;SDS011;68857;47.916;106.940;2023-05-27T02:55:07;3.25;;;1.88;;
79401;SDS011;68857;47.916;106.940;2023-05-27T02:57:33;4.53;;;1.65;;
79401;SDS011;68857;47.916;106.940;2023-05-27T03:00:00;5.05;;;1.92;;
79401;SDS011;68857;47.916;106.940;2023-05-27T03:02:27;4.50;;;1.67;;
79401;SDS011;68857;47.916;106.940;2023-05-27T03:04:54;5.50;;;2.28;;
79401;SDS011;68857;47.916;106.940;2023-05-27T03:07:22;3.47;;;1.92;;
79401;SDS011;68857;47.916;106.940;2023-05-27T03:09:48;14.88;;;2.25;;
79401;SDS011;68857;47.916;106.940;2023-05-27T03:12:15;3.00;;;1.35;;
79401;SDS011;68857;47.916;106.940;2023-05-27T03:14:42;5.05;;;2.08;;
79401;SDS011;68857;47.916;106.940;2023-05-27T03:17:08;10.77;;;2.47;;
79401;SDS011;68857;47.916;106.940;2023-05-27T03:19:35;6.57;;;3.70;;
79401;SDS011;68857;47.916;106.940;2023-05-27T03:22:01;11.13;;;4.32;;
79401;SDS011;68857;47.916;106.940;2023-05-27T03:24:28;12.52;;;4.18;;
79401;SDS011;68857;47.916;106.940;2023-05-27T03:26:54;17.00;;;5.20;;
79401;SDS011;68857;47.916;106.940;2023-05-27T03:29:21;8.80;;;3.50;;
79401;SDS011;68857;47.916;106.940;2023-05-27T03:31:48;13.35;;;4.63;;
79401;SDS011;68857;47.916;106.940;2023-05-27T03:34:14;14.27;;;4.68;;
79401;SDS011;68857;47.916;106.940;2023-05-27T03:36:41;13.45;;;3.92;;
79401;SDS011;68857;47.916;106.940;2023-05-27T03:39:12;9.05;;;3.70;;
79401;SDS011;68857;47.916;106.940;2023-05-27T03:41:39;13.35;;;3.67;;
79401;SDS011;68857;47.916;106.940;2023-05-27T03:44:05;13.70;;;4.00;;
79401;SDS011;68857;47.916;106.940;2023-05-27T03:46:32;8.15;;;3.92;;
79401;SDS011;68857;47.916;106.940;2023-05-27T03:48:58;11.80;;;3.78;;
79401;SDS011;68857;47.916;106.940;2023-05-27T03:51:25;9.15;;;3.38;;
79401;SDS011;68857;47.916;106.940;2023-05-27T03:53:52;9.55;;;3.67;;
79401;SDS011;68857;47.916;106.940;2023-05-27T03:56:18;9.07;;;3.42;;
79401;SDS011;68857;47.916;106.940;2023-05-27T03:58:45;7.07;;;3.00;;
79401;SDS011;68857;47.916;106.940;2023-05-27T04:01:11;7.57;;;3.80;;
79401;SDS011;68857;47.916;106.940;2023-05-27T04:03:38;10.80;;;3.00;;
79401;SDS011;68857;47.916;106.940;2023-05-27T04:06:05;7.95;;;2.60;;
79401;SDS011;68857;47.916;106.940;2023-05-27T04:08:32;5.82;;;2.22;;
79401;SDS011;68857;47.916;106.940;2023-05-27T04:11:00;9.57;;;3.08;;
79401;SDS011;68857;47.916;106.940;2023-05-27T04:13:27;9.63;;;2.95;;
79401;SDS011;68857;47.916;106.940;2023-05-27T04:15:54;8.15;;;2.50;;
79401;SDS011;68857;47.916;106.940;2023-05-27T04:18:22;9.02;;;2.80;;
79401;SDS011;68857;47.916;106.940;2023-05-27T04:20:49;6.63;;;2.72;;
79401;SDS011;68857;47.916;106.940;2023-05-27T04:23:17;6.43;;;2.47;;
79401;SDS011;68857;47.916;106.940;2023-05-27T04:25:44;7.60;;;2.90;;
79401;SDS011;68857;47.916;106.940;2023-05-27T04:28:10;4.13;;;2.30;;
79401;SDS011;68857;47.916;106.940;2023-05-27T04:30:37;6.35;;;2.20;;
79401;SDS011;68857;47.916;106.940;2023-05-27T04:33:05;7.25;;;2.20;;
79401;SDS011;68857;47.916;106.940;2023-05-27T04:35:32;5.95;;;3.00;;
79401;SDS011;68857;47.916;106.940;2023-05-27T04:37:59;5.15;;;1.98;;
79401;SDS011;68857;47.916;106.940;2023-05-27T04:40:29;3.83;;;2.33;;
79401;SDS011;68857;47.916;106.940;2023-05-27T04:42:56;4.60;;;2.35;;
79401;SDS011;68857;47.916;106.940;2023-05-27T04:45:23;8.63;;;3.35;;
79401;SDS011;68857;47.916;106.940;2023-05-27T04:47:49;6.60;;;2.50;;
79401;SDS011;68857;47.916;106.940;2023-05-27T04:50:16;5.45;;;2.80;;
79401;SDS011;68857;47.916;106.940;2023-05-27T04:52:42;6.68;;;2.50;;
79401;SDS011;68857;47.916;106.940;2023-05-27T04:55:10;3.00;;;1.67;;
79401;SDS011;68857;47.916;106.940;2023-05-27T04:57:37;6.85;;;2.22;;
79401;SDS011;68857;47.916;106.940;2023-05-27T05:00:06;4.47;;;1.80;;
79401;SDS011;68857;47.916;106.940;2023-05-27T05:02:36;3.25;;;1.83;;
79401;SDS011;68857;47.916;106.940;2023-05-27T05:05:05;5.28;;;2.20;;
79401;SDS011;68857;47.916;106.940;2023-05-27T05:07:33;6.15;;;2.00;;
79401;SDS011;68857;47.916;106.940;2023-05-27T05:10:06;3.13;;;2.47;;
79401;SDS011;68857;47.916;106.940;2023-05-27T05:12:33;4.43;;;2.08;;
79401;SDS011;68857;47.916;106.940;2023-05-27T05:15:00;5.05;;;2.13;;
79401;SDS011;68857;47.916;106.940;2023-05-27T05:17:27;4.80;;;1.92;;
79401;SDS011;68857;47.916;106.940;2023-05-27T05:19:53;7.50;;;2.55;;
79401;SDS011;68857;47.916;106.940;2023-05-27T05:22:20;4.72;;;1.98;;
79401;SDS011;68857;47.916;106.940;2023-05-27T05:24:51;3.50;;;2.13;;
79401;SDS011;68857;47.916;106.940;2023-05-27T05:27:18;4.40;;;2.35;;
79401;SDS011;68857;47.916;106.940;2023-05-27T05:29:45;6.38;;;2.22;;
79401;SDS011;68857;47.916;106.940;2023-05-27T05:32:11;4.78;;;2.85;;
79401;SDS011;68857;47.916;106.940;2023-05-27T05:34:38;5.07;;;1.70;;
79401;SDS011;68857;47.916;106.940;2023-05-27T05:37:05;4.03;;;1.60;;
79401;SDS011;68857;47.916;106.940;2023-05-27T05:39:32;4.35;;;2.03;;
79401;SDS011;68857;47.916;106.940;2023-05-27T05:41:58;4.00;;;2.33;;
79401;SDS011;68857;47.916;106.940;2023-05-27T05:44:25;4.18;;;2.67;;
79401;SDS011;68857;47.916;106.940;2023-05-27T05:46:52;3.10;;;1.70;;
79401;SDS011;68857;47.916;106.940;2023-05-27T05:49:18;3.33;;;1.50;;
79401;SDS011;68857;47.916;106.940;2023-05-27T05:51:45;4.88;;;2.78;;
79401;SDS011;68857;47.916;106.940;2023-05-27T05:54:12;3.92;;;1.67;;
79401;SDS011;68857;47.916;106.940;2023-05-27T05:56:38;3.40;;;1.85;;
79401;SDS011;68857;47.916;106.940;2023-05-27T05:59:05;4.28;;;1.92;;
79401;SDS011;68857;47.916;106.940;2023-05-27T06:01:32;3.35;;;2.00;;
79401;SDS011;68857;47.916;106.940;2023-05-27T06:03:58;6.57;;;1.60;;
79401;SDS011;68857;47.916;106.940;2023-05-27T06:06:29;4.43;;;1.70;;
79401;SDS011;68857;47.916;106.940;2023-05-27T06:08:56;4.15;;;2.25;;
79401;SDS011;68857;47.916;106.940;2023-05-27T06:11:23;3.78;;;2.72;;
79401;SDS011;68857;47.916;106.940;2023-05-27T06:13:51;4.10;;;2.58;;
79401;SDS011;68857;47.916;106.940;2023-05-27T06:16:18;8.10;;;4.13;;
79401;SDS011;68857;47.916;106.940;2023-05-27T06:18:44;9.90;;;6.38;;
79401;SDS011;68857;47.916;106.940;2023-05-27T06:21:11;7.70;;;6.05;;
79401;SDS011;68857;47.916;106.940;2023-05-27T06:23:38;8.15;;;6.38;;
79401;SDS011;68857;47.916;106.940;2023-05-27T06:26:04;7.68;;;5.47;;
79401;SDS011;68857;47.916;106.940;2023-05-27T06:28:31;8.85;;;6.60;;
79401;SDS011;68857;47.916;106.940;2023-05-27T06:30:57;8.43;;;5.47;;
79401;SDS011;68857;47.916;106.940;2023-05-27T06:33:24;9.27;;;5.65;;
79401;SDS011;68857;47.916;106.940;2023-05-27T06:35:50;9.50;;;5.47;;
79401;SDS011;68857;47.916;106.940;2023-05-27T06:38:17;7.93;;;4.43;;
79401;SDS011;68857;47.916;106.940;2023-05-27T06:40:44;10.18;;;5.40;;
79401;SDS011;68857;47.916;106.940;2023-05-27T06:43:10;14.50;;;5.40;;
79401;SDS011;68857;47.916;106.940;2023-05-27T06:45:37;12.45;;;4.00;;
79401;SDS011;68857;47.916;106.940;2023-05-27T06:48:03;13.40;;;4.03;;
79401;SDS011;68857;47.916;106.940;2023-05-27T06:50:30;8.80;;;3.85;;
79401;SDS011;68857;47.916;106.940;2023-05-27T06:52:56;10.85;;;4.78;;
79401;SDS011;68857;47.916;106.940;2023-05-27T06:55:23;7.75;;;4.50;;
79401;SDS011;68857;47.916;106.940;2023-05-27T06:57:50;7.00;;;3.65;;
79401;SDS011;68857;47.916;106.940;2023-05-27T07:00:17;9.82;;;3.50;;
79401;SDS011;68857;47.916;106.940;2023-05-27T07:02:43;8.75;;;3.63;;
79401;SDS011;68857;47.916;106.940;2023-05-27T07:05:10;8.57;;;2.90;;
79401;SDS011;68857;47.916;106.940;2023-05-27T07:07:36;8.77;;;3.08;;
79401;SDS011;68857;47.916;106.940;2023-05-27T07:10:03;7.88;;;3.42;;
79401;SDS011;68857;47.916;106.940;2023-05-27T07:12:29;6.30;;;2.20;;
79401;SDS011;68857;47.916;106.940;2023-05-27T07:14:56;6.35;;;2.65;;
79401;SDS011;68857;47.916;106.940;2023-05-27T07:17:22;4.95;;;2.30;;
79401;SDS011;68857;47.916;106.940;2023-05-27T07:19:49;5.13;;;3.08;;
79401;SDS011;68857;47.916;106.940;2023-05-27T07:22:16;6.65;;;3.35;;
79401;SDS011;68857;47.916;106.940;2023-05-27T07:24:43;6.00;;;3.70;;
79401;SDS011;68857;47.916;106.940;2023-05-27T07:27:09;6.75;;;3.33;;
79401;SDS011;68857;47.916;106.940;2023-05-27T07:29:36;5.38;;;3.42;;
79401;SDS011;68857;47.916;106.940;2023-05-27T07:32:02;6.50;;;3.35;;
79401;SDS011;68857;47.916;106.940;2023-05-27T07:34:29;5.55;;;3.22;;
79401;SDS011;68857;47.916;106.940;2023-05-27T07:36:56;5.63;;;3.13;;
79401;SDS011;68857;47.916;106.940;2023-05-27T07:39:22;5.80;;;2.90;;
79401;SDS011;68857;47.916;106.940;2023-05-27T07:41:49;5.85;;;2.65;;
79401;SDS011;68857;47.916;106.940;2023-05-27T07:44:16;4.80;;;2.42;;
79401;SDS011;68857;47.916;106.940;2023-05-27T07:46:42;4.15;;;2.00;;
79401;SDS011;68857;47.916;106.940;2023-05-27T07:49:09;5.15;;;1.98;;
79401;SDS011;68857;47.916;106.940;2023-05-27T07:51:36;4.18;;;2.38;;
79401;SDS011;68857;47.916;106.940;2023-05-27T07:54:02;4.65;;;2.85;;
79401;SDS011;68857;47.916;106.940;2023-05-27T07:56:29;5.00;;;2.78;;
79401;SDS011;68857;47.916;106.940;2023-05-27T07:58:55;3.65;;;1.75;;
79401;SDS011;68857;47.916;106.940;2023-05-27T08:01:22;4.00;;;1.98;;
79401;SDS011;68857;47.916;106.940;2023-05-27T08:03:50;4.68;;;2.38;;
79401;SDS011;68857;47.916;106.940;2023-05-27T08:06:17;3.45;;;1.92;;
79401;SDS011;68857;47.916;106.940;2023-05-27T08:08:43;4.15;;;1.95;;
79401;SDS011;68857;47.916;106.940;2023-05-27T08:11:10;3.30;;;2.00;;
79401;SDS011;68857;47.916;106.940;2023-05-27T08:13:37;3.45;;;1.83;;
79401;SDS011;68857;47.916;106.940;2023-05-27T08:16:03;4.57;;;2.40;;
79401;SDS011;68857;47.916;106.940;2023-05-27T08:18:30;3.72;;;2.67;;
79401;SDS011;68857;47.916;106.940;2023-05-27T08:20:56;4.13;;;3.63;;
79401;SDS011;68857;47.916;106.940;2023-05-27T08:23:23;4.85;;;2.72;;
79401;SDS011;68857;47.916;106.940;2023-05-27T08:25:50;4.97;;;2.63;;
79401;SDS011;68857;47.916;106.940;2023-05-27T08:28:17;4.03;;;2.72;;
79401;SDS011;68857;47.916;106.940;2023-05-27T08:30:43;3.95;;;3.13;;
79401;SDS011;68857;47.916;106.940;2023-05-27T08:33:10;5.80;;;3.83;;
79401;SDS011;68857;47.916;106.940;2023-05-27T08:35:36;4.75;;;2.65;;
79401;SDS011;68857;47.916;106.940;2023-05-27T08:38:03;4.57;;;2.80;;
79401;SDS011;68857;47.916;106.940;2023-05-27T08:40:30;4.90;;;2.88;;
79401;SDS011;68857;47.916;106.940;2023-05-27T08:42:56;4.10;;;2.70;;
79401;SDS011;68857;47.916;106.940;2023-05-27T08:45:22;5.03;;;2.38;;
79401;SDS011;68857;47.916;106.940;2023-05-27T08:47:50;4.20;;;2.42;;
79401;SDS011;68857;47.916;106.940;2023-05-27T08:50:18;3.90;;;2.17;;
79401;SDS011;68857;47.916;106.940;2023-05-27T08:52:45;4.15;;;2.47;;
79401;SDS011;68857;47.916;106.940;2023-05-27T08:55:14;4.13;;;2.10;;
79401;SDS011;68857;47.916;106.940;2023-05-27T08:57:46;5.53;;;2.42;;
79401;SDS011;68857;47.916;106.940;2023-05-27T09:02:40;4.30;;;2.63;;
79401;SDS011;68857;47.916;106.940;2023-05-27T09:05:08;4.95;;;2.97;;
79401;SDS011;68857;47.916;106.940;2023-05-27T09:07:35;3.97;;;2.45;;
79401;SDS011;68857;47.916;106.940;2023-05-27T09:10:02;4.53;;;2.78;;
79401;SDS011;68857;47.916;106.940;2023-05-27T09:12:29;4.70;;;2.40;;
79401;SDS011;68857;47.916;106.940;2023-05-27T09:14:56;4.40;;;2.47;;
79401;SDS011;68857;47.916;106.940;2023-05-27T09:17:22;4.57;;;2.35;;
79401;SDS011;68857;47.916;106.940;2023-05-27T09:19:53;3.80;;;2.53;;
79401;SDS011;68857;47.916;106.940;2023-05-27T09:22:21;2.63;;;2.03;;
79401;SDS011;68857;47.916;106.940;2023-05-27T09:24:48;4.40;;;2.10;;
79401;SDS011;68857;47.916;106.940;2023-05-27T09:27:15;4.50;;;2.25;;
79401;SDS011;68857;47.916;106.940;2023-05-27T09:29:42;4.05;;;2.38;;
79401;SDS011;68857;47.916;106.940;2023-05-27T09:32:08;3.10;;;1.80;;
79401;SDS011;68857;47.916;106.940;2023-05-27T09:34:38;4.05;;;2.17;;
79401;SDS011;68857;47.916;106.940;2023-05-27T09:37:05;4.65;;;2.38;;
79401;SDS011;68857;47.916;106.940;2023-05-27T09:39:32;3.45;;;1.83;;
79401;SDS011;68857;47.916;106.940;2023-05-27T09:42:02;4.15;;;2.17;;
79401;SDS011;68857;47.916;106.940;2023-05-27T09:44:29;3.55;;;2.03;;
79401;SDS011;68857;47.916;106.940;2023-05-27T09:46:56;3.95;;;1.83;;
79401;SDS011;68857;47.916;106.940;2023-05-27T09:49:25;3.03;;;1.83;;
79401;SDS011;68857;47.916;106.940;2023-05-27T09:51:53;2.17;;;1.13;;
79401;SDS011;68857;47.916;106.940;2023-05-27T09:54:22;2.38;;;1.80;;
79401;SDS011;68857;47.916;106.940;2023-05-27T09:56:49;2.63;;;1.40;;
79401;SDS011;68857;47.916;106.940;2023-05-27T09:59:16;2.45;;;1.58;;
79401;SDS011;68857;47.916;106.940;2023-05-27T10:01:44;2.72;;;1.50;;
79401;SDS011;68857;47.916;106.940;2023-05-27T10:04:14;2.70;;;1.88;;
79401;SDS011;68857;47.916;106.940;2023-05-27T10:06:41;4.38;;;2.28;;
79401;SDS011;68857;47.916;106.940;2023-05-27T10:09:09;5.57;;;3.40;;
79401;SDS011;68857;47.916;106.940;2023-05-27T10:11:38;6.20;;;3.72;;
79401;SDS011;68857;47.916;106.940;2023-05-27T10:14:06;4.93;;;3.22;;
79401;SDS011;68857;47.916;106.940;2023-05-27T10:16:33;6.18;;;4.22;;
79401;SDS011;68857;47.916;106.940;2023-05-27T10:19:01;5.80;;;4.05;;
79401;SDS011;68857;47.916;106.940;2023-05-27T10:21:28;7.32;;;4.50;;
79401;SDS011;68857;47.916;106.940;2023-05-27T10:23:59;6.97;;;4.28;;
79401;SDS011;68857;47.916;106.940;2023-05-27T10:29:08;7.07;;;4.47;;
79401;SDS011;68857;47.916;106.940;2023-05-27T10:31:35;6.22;;;4.15;;
79401;SDS011;68857;47.916;106.940;2023-05-27T10:34:06;6.32;;;4.43;;
79401;SDS011;68857;47.916;106.940;2023-05-27T10:36:33;6.60;;;4.85;;
79401;SDS011;68857;47.916;106.940;2023-05-27T10:41:41;6.07;;;2.78;;
79401;SDS011;68857;47.916;106.940;2023-05-27T10:44:08;4.82;;;3.42;;
79401;SDS011;68857;47.916;106.940;2023-05-27T10:46:39;5.85;;;3.53;;
79401;SDS011;68857;47.916;106.940;2023-05-27T10:49:10;5.25;;;3.25;;
79401;SDS011;68857;47.916;106.940;2023-05-27T10:51:37;5.63;;;2.88;;
79401;SDS011;68857;47.916;106.940;2023-05-27T10:54:05;5.00;;;3.40;;
79401;SDS011;68857;47.916;106.940;2023-05-27T10:56:32;4.47;;;3.17;;
79401;SDS011;68857;47.916;106.940;2023-05-27T10:59:00;5.95;;;3.13;;
79401;SDS011;68857;47.916;106.940;2023-05-27T11:01:28;4.25;;;3.15;;
79401;SDS011;68857;47.916;106.940;2023-05-27T11:03:58;5.20;;;2.63;;
79401;SDS011;68857;47.916;106.940;2023-05-27T11:06:25;4.28;;;2.97;;
79401;SDS011;68857;47.916;106.940;2023-05-27T11:08:52;5.45;;;2.92;;
79401;SDS011;68857;47.916;106.940;2023-05-27T11:11:18;6.75;;;3.53;;
79401;SDS011;68857;47.916;106.940;2023-05-27T11:13:46;6.30;;;2.85;;
79401;SDS011;68857;47.916;106.940;2023-05-27T11:16:13;6.15;;;3.38;;
79401;SDS011;68857;47.916;106.940;2023-05-27T11:18:47;3.92;;;2.85;;
79401;SDS011;68857;47.916;106.940;2023-05-27T11:21:14;4.30;;;3.28;;
79401;SDS011;68857;47.916;106.940;2023-05-27T11:23:44;7.78;;;3.08;;
79401;SDS011;68857;47.916;106.940;2023-05-27T11:26:14;4.22;;;2.50;;
79401;SDS011;68857;47.916;106.940;2023-05-27T11:28:45;5.47;;;3.83;;
79401;SDS011;68857;47.916;106.940;2023-05-27T11:31:12;4.28;;;2.80;;
79401;SDS011;68857;47.916;106.940;2023-05-27T11:33:43;4.25;;;2.58;;
79401;SDS011;68857;47.916;106.940;2023-05-27T11:36:14;5.78;;;2.83;;
79401;SDS011;68857;47.916;106.940;2023-05-27T11:38:48;4.82;;;2.50;;
79401;SDS011;68857;47.916;106.940;2023-05-27T11:41:14;3.88;;;2.42;;
79401;SDS011;68857;47.916;106.940;2023-05-27T11:43:51;9.43;;;2.72;;
79401;SDS011;68857;47.916;106.940;2023-05-27T11:46:17;5.47;;;2.80;;
79401;SDS011;68857;47.916;106.940;2023-05-27T11:48:45;5.35;;;2.40;;
79401;SDS011;68857;47.916;106.940;2023-05-27T11:51:11;5.10;;;2.55;;
79401;SDS011;68857;47.916;106.940;2023-05-27T11:53:44;6.43;;;2.65;;
79401;SDS011;68857;47.916;106.940;2023-05-27T11:56:11;4.82;;;2.38;;
79401;SDS011;68857;47.916;106.940;2023-05-27T11:58:37;4.15;;;3.00;;
79401;SDS011;68857;47.916;106.940;2023-05-27T12:01:04;4.28;;;2.22;;
79401;SDS011;68857;47.916;106.940;2023-05-27T12:03:33;4.28;;;2.40;;
79401;SDS011;68857;47.916;106.940;2023-05-27T12:06:00;3.72;;;2.13;;
79401;SDS011;68857;47.916;106.940;2023-05-27T12:08:27;4.20;;;2.03;;
79401;SDS011;68857;47.916;106.940;2023-05-27T12:10:54;4.47;;;2.20;;
79401;SDS011;68857;47.916;106.940;2023-05-27T12:13:21;3.60;;;2.33;;
79401;SDS011;68857;47.916;106.940;2023-05-27T12:15:48;3.70;;;2.40;;
79401;SDS011;68857;47.916;106.940;2023-05-27T12:18:16;6.35;;;2.55;;
79401;SDS011;68857;47.916;106.940;2023-05-27T12:20:43;4.88;;;2.47;;
79401;SDS011;68857;47.916;106.940;2023-05-27T12:23:10;6.95;;;3.03;;
79401;SDS011;68857;47.916;106.940;2023-05-27T12:25:37;5.75;;;2.40;;
79401;SDS011;68857;47.916;106.940;2023-05-27T12:28:05;3.55;;;2.33;;
79401;SDS011;68857;47.916;106.940;2023-05-27T12:30:32;4.28;;;2.70;;
79401;SDS011;68857;47.916;106.940;2023-05-27T12:33:00;3.88;;;2.78;;
79401;SDS011;68857;47.916;106.940;2023-05-27T12:35:27;5.03;;;3.20;;
79401;SDS011;68857;47.916;106.940;2023-05-27T12:37:54;4.57;;;2.65;;
79401;SDS011;68857;47.916;106.940;2023-05-27T12:40:20;6.38;;;3.15;;
79401;SDS011;68857;47.916;106.940;2023-05-27T12:42:47;4.40;;;2.83;;
79401;SDS011;68857;47.916;106.940;2023-05-27T12:45:14;5.32;;;2.78;;
79401;SDS011;68857;47.916;106.940;2023-05-27T12:47:41;5.45;;;2.83;;
79401;SDS011;68857;47.916;106.940;2023-05-27T12:50:07;5.22;;;2.95;;
79401;SDS011;68857;47.916;106.940;2023-05-27T12:52:34;5.75;;;3.83;;
79401;SDS011;68857;47.916;106.940;2023-05-27T12:55:04;6.97;;;4.38;;
79401;SDS011;68857;47.916;106.940;2023-05-27T12:57:30;5.65;;;3.72;;
79401;SDS011;68857;47.916;106.940;2023-05-27T12:59:57;7.32;;;3.70;;
79401;SDS011;68857;47.916;106.940;2023-05-27T13:02:23;6.50;;;3.83;;
79401;SDS011;68857;47.916;106.940;2023-05-27T13:04:50;7.22;;;3.83;;
79401;SDS011;68857;47.916;106.940;2023-05-27T13:07:16;6.20;;;3.85;;
79401;SDS011;68857;47.916;106.940;2023-05-27T13:09:43;7.15;;;4.35;;
79401;SDS011;68857;47.916;106.940;2023-05-27T13:12:10;8.52;;;4.72;;
79401;SDS011;68857;47.916;106.940;2023-05-27T13:14:37;7.68;;;5.63;;
79401;SDS011;68857;47.916;106.940;2023-05-27T13:17:04;6.82;;;4.07;;
79401;SDS011;68857;47.916;106.940;2023-05-27T13:19:31;7.45;;;4.65;;
79401;SDS011;68857;47.916;106.940;2023-05-27T13:21:58;8.35;;;4.60;;
79401;SDS011;68857;47.916;106.940;2023-05-27T13:24:24;7.50;;;4.28;;
79401;SDS011;68857;47.916;106.940;2023-05-27T13:26:51;6.97;;;4.10;;
79401;SDS011;68857;47.916;106.940;2023-05-27T13:29:17;7.10;;;4.07;;
79401;SDS011;68857;47.916;106.940;2023-05-27T13:31:44;6.05;;;4.18;;
79401;SDS011;68857;47.916;106.940;2023-05-27T13:34:11;6.13;;;3.70;;
79401;SDS011;68857;47.916;106.940;2023-05-27T13:36:38;8.40;;;6.05;;
79401;SDS011;68857;47.916;106.940;2023-05-27T13:39:04;6.65;;;4.57;;
79401;SDS011;68857;47.916;106.940;2023-05-27T13:41:31;7.30;;;3.85;;
79401;SDS011;68857;47.916;106.940;2023-05-27T13:43:57;6.22;;;3.85;;
79401;SDS011;68857;47.916;106.940;2023-05-27T13:46:24;7.88;;;3.90;;
79401;SDS011;68857;47.916;106.940;2023-05-27T13:48:51;5.82;;;3.75;;
79401;SDS011;68857;47.916;106.940;2023-05-27T13:51:17;6.43;;;3.92;;
79401;SDS011;68857;47.916;106.940;2023-05-27T13:53:44;6.75;;;3.55;;
79401;SDS011;68857;47.916;106.940;2023-05-27T13:56:10;9.23;;;4.30;;
79401;SDS011;68857;47.916;106.940;2023-05-27T13:58:37;7.00;;;4.18;;
79401;SDS011;68857;47.916;106.940;2023-05-27T14:01:05;8.30;;;4.10;;
79401;SDS011;68857;47.916;106.940;2023-05-27T14:03:32;7.00;;;3.80;;
79401;SDS011;68857;47.916;106.940;2023-05-27T14:05:58;6.35;;;3.55;;
79401;SDS011;68857;47.916;106.940;2023-05-27T14:08:25;6.70;;;3.25;;
79401;SDS011;68857;47.916;106.940;2023-05-27T14:10:52;6.72;;;3.67;;
79401;SDS011;68857;47.916;106.940;2023-05-27T14:13:18;8.48;;;3.67;;
79401;SDS011;68857;47.916;106.940;2023-05-27T14:15:45;8.68;;;6.20;;
79401;SDS011;68857;47.916;106.940;2023-05-27T14:18:11;6.28;;;3.97;;
79401;SDS011;68857;47.916;106.940;2023-05-27T14:20:38;6.63;;;3.97;;
79401;SDS011;68857;47.916;106.940;2023-05-27T14:23:05;7.15;;;4.00;;
79401;SDS011;68857;47.916;106.940;2023-05-27T14:25:36;6.25;;;3.10;;
79401;SDS011;68857;47.916;106.940;2023-05-27T14:28:03;5.97;;;3.75;;
79401;SDS011;68857;47.916;106.940;2023-05-27T14:30:31;5.75;;;3.45;;
79401;SDS011;68857;47.916;106.940;2023-05-27T14:33:08;6.45;;;4.03;;
79401;SDS011;68857;47.916;106.940;2023-05-27T14:35:35;6.75;;;4.25;;